^^
Grace C. Lehan Memorial Weather Station Historical Data
Daily Summary for June 2, 2021 Units:  Metric    English   Both
Daily Weekly Monthly Yearly
  High: Low: Average:
Temperature: 28.1 °C 9.8 °C 17.2 °C
Dew Point: 13.3 °C 0.1 °C 8.2 °C
Humidity: 80% 32.3% 58%
Wind Speed: 10.9km/h 0km/h 1.6km/h
Wind Gust: 27.4km/h - -
Wind- - WNW
Pressure: 1009 hPa 1002.3 hPa -
Precipitation: 0 mm    
 
 
Tabular Data for June 2, 2021
Time Temperature Dew Point Pressure Wind Wind Speed Wind Gust Humidity Rainfall Rate (Hourly) solar
00:09 9.8 °C 0.1 °C 1008.4 hPa Calm     51% 0 mm 0 W/m2
00:14 9.8 °C 0.3 °C 1008.4 hPa Calm     51.4% 0 mm 0 W/m2
00:19 9.9 °C 0.4 °C 1008.4 hPa Calm     51.3% 0 mm 0 W/m2
00:24 9.9 °C 0.1 °C 1008.4 hPa Calm     50.4% 0 mm 0 W/m2
00:29 10 °C 0.1 °C 1008 hPa Calm   1.6 km/h 50% 0 mm 0 W/m2
00:34 10.1 °C 0.1 °C 1008 hPa Calm   1.6 km/h 50% 0 mm 0 W/m2
00:39 10.1 °C 0.1 °C 1008 hPa Calm     49.8% 0 mm 0 W/m2
00:44 10.2 °C 0.2 °C 1008 hPa Calm     49.9% 0 mm 0 W/m2
00:49 10.2 °C 0.6 °C 1008 hPa Calm     51.1% 0 mm 0 W/m2
00:54 10.3 °C 0.8 °C 1007.7 hPa Calm     52% 0 mm 0 W/m2
00:59 10.2 °C 0.8 °C 1007.7 hPa Calm     52% 0 mm 0 W/m2
01:04 10.2 °C 0.8 °C 1007.7 hPa Calm     52% 0 mm 0 W/m2
01:09 10.3 °C 1 °C 1007.7 hPa Calm     52.5% 0 mm 0 W/m2
01:14 10.3 °C 1.6 °C 1007.7 hPa Calm     54.3% 0 mm 0 W/m2
01:19 10.4 °C 1.6 °C 1007.7 hPa Calm     54.2% 0 mm 0 W/m2
01:24 10.6 °C 1.7 °C 1007.7 hPa Calm     54.3% 0 mm 0 W/m2
01:29 10.7 °C 1.9 °C 1007.7 hPa Calm     54.7% 0 mm 0 W/m2
01:34 10.8 °C 2.2 °C 1007.7 hPa Calm     55.2% 0 mm 0 W/m2
01:39 10.8 °C 2.4 °C 1007.7 hPa Calm     56% 0 mm 0 W/m2
01:44 10.9 °C 2.9 °C 1007.7 hPa Calm     57.6% 0 mm 0 W/m2
01:49 10.9 °C 3.3 °C 1007.7 hPa Calm     59.2% 0 mm 0 W/m2
01:54 10.8 °C 3.5 °C 1007.7 hPa Calm     60.6% 0 mm 0 W/m2
01:59 10.7 °C 3.3 °C 1008 hPa Calm     60.1% 0 mm 0 W/m2
02:04 10.7 °C 3.8 °C 1008 hPa Calm     62.3% 0 mm 0 W/m2
02:09 10.7 °C 4.3 °C 1008 hPa Calm     64.6% 0 mm 0 W/m2
02:14 10.6 °C 4.7 °C 1008 hPa Calm     66.7% 0 mm 0 W/m2
02:19 10.5 °C 4.9 °C 1008 hPa Calm     68.6% 0 mm 0 W/m2
02:24 10.4 °C 4.9 °C 1007.7 hPa Calm     68.8% 0 mm 0 W/m2
02:29 10.2 °C 5 °C 1007.7 hPa Calm     70% 0 mm 0 W/m2
02:34 10.2 °C 4.9 °C 1007.3 hPa Calm     70% 0 mm 0 W/m2
02:39 10.2 °C 5 °C 1007.3 hPa Calm     70.2% 0 mm 0 W/m2
02:44 10.2 °C 5.2 °C 1007.3 hPa Calm     71% 0 mm 0 W/m2
02:49 10.2 °C 5.2 °C 1007.3 hPa Calm     71% 0 mm 0 W/m2
02:54 10.2 °C 5.2 °C 1007 hPa Calm     71% 0 mm 0 W/m2
02:59 10.3 °C 5.3 °C 1007 hPa Calm     71% 0 mm 0 W/m2
03:04 10.3 °C 5.3 °C 1007 hPa Calm     71% 0 mm 0 W/m2
03:09 10.3 °C 5.3 °C 1007 hPa Calm     71% 0 mm 0 W/m2
03:14 10.4 °C 5.4 °C 1007 hPa Calm     71% 0 mm 0 W/m2
03:19 10.4 °C 5.5 °C 1006.7 hPa Calm     71.5% 0 mm 0 W/m2
03:24 10.4 °C 5.4 °C 1006.7 hPa Calm     71% 0 mm 0 W/m2
03:29 10.5 °C 5.5 °C 1006.7 hPa Calm     71.2% 0 mm 0 W/m2
03:34 10.6 °C 5.3 °C 1006.7 hPa Calm     70.2% 0 mm 0 W/m2
03:39 10.6 °C 5.3 °C 1006.7 hPa Calm     70% 0 mm 0 W/m2
03:44 10.6 °C 5.4 °C 1006.7 hPa Calm     69.8% 0 mm 0 W/m2
03:49 10.7 °C 5.3 °C 1006.3 hPa Calm     69.3% 0 mm 0 W/m2
03:54 10.7 °C 5.4 °C 1006.3 hPa Calm     69.8% 0 mm 0 W/m2
03:59 10.8 °C 5.3 °C 1006.3 hPa Calm     69.2% 0 mm 0 W/m2
04:00 10.8 °C 5.3 °C 1006.3 hPa Calm     69% 0 mm 0 W/m2
04:09 10.8 °C 5.5 °C 1006.3 hPa Calm     69.5% 0 mm 0 W/m2
04:14 10.9 °C 5.6 °C 1006.3 hPa Calm     70% 0 mm 0 W/m2
04:19 10.9 °C 5.3 °C 1006 hPa Calm     68.3% 0 mm 0 W/m2
04:24 10.9 °C 5.3 °C 1006 hPa Calm     68% 0 mm 0 W/m2
04:29 11 °C 5.1 °C 1006 hPa Calm     66.6% 0 mm 0 W/m2
04:34 11.1 °C 4.9 °C 1006 hPa NNW 0.2 km/h 1.6 km/h 66% 0 mm 0 W/m2
04:39 11.2 °C 5.1 °C 1006 hPa Calm   1.6 km/h 66% 0 mm 0 W/m2
04:44 11.2 °C 5.2 °C 1005.6 hPa Calm   1.6 km/h 66.1% 0 mm 0 W/m2
04:49 11.3 °C 5 °C 1005.6 hPa Calm   1.6 km/h 65.1% 0 mm 0 W/m2
04:54 11.4 °C 4.9 °C 1005.6 hPa Calm   1.6 km/h 64.3% 0 mm 0 W/m2
04:59 11.5 °C 4.7 °C 1005.6 hPa NNW 0.2 km/h 3.2 km/h 63.1% 0 mm 0 W/m2
05:04 11.6 °C 4.6 °C 1005.6 hPa NNW 0.2 km/h 3.2 km/h 62% 0 mm 0 W/m2
05:09 11.7 °C 4.6 °C 1005.6 hPa NNW 0.2 km/h 3.2 km/h 61.5% 0 mm 0 W/m2
05:14 11.8 °C 4.6 °C 1005.6 hPa Calm   3.2 km/h 61% 0 mm 0 W/m2
05:19 11.9 °C 4.5 °C 1005.6 hPa NNW 0.2 km/h 3.2 km/h 60.5% 0 mm 0 W/m2
05:24 11.9 °C 4.6 °C 1005.6 hPa Calm   3.2 km/h 60.4% 0 mm 0 W/m2
05:29 12 °C 4.7 °C 1005.6 hPa NNW 0.2 km/h 3.2 km/h 60.6% 0 mm 0 W/m2
05:34 12.1 °C 4.7 °C 1005.6 hPa NNW 0.3 km/h 4.8 km/h 60.9% 0 mm 0 W/m2
05:39 12.1 °C 4.7 °C 1005.6 hPa NNW 0.2 km/h 4.8 km/h 60.5% 0 mm 0 W/m2
05:44 12.1 °C 4.6 °C 1005.6 hPa Calm   4.8 km/h 60% 0 mm 0 W/m2
05:49 12.1 °C 4.6 °C 1005.6 hPa NNW 0.2 km/h 4.8 km/h 60% 0 mm 0 W/m2
05:54 12.1 °C 4.6 °C 1005.6 hPa Calm   4.8 km/h 60% 0 mm 0 W/m2
05:59 12.1 °C 4.5 °C 1005.6 hPa NNW 0.2 km/h 4.8 km/h 59.5% 0 mm 7 W/m2
06:04 12.1 °C 4.3 °C 1005.6 hPa Calm   4.8 km/h 59% 0 mm 9 W/m2
06:09 12.1 °C 4.3 °C 1005.6 hPa Calm     59% 0 mm 11 W/m2
06:14 12.1 °C 4.3 °C 1005.6 hPa Calm   1.6 km/h 59% 0 mm 16 W/m2
06:19 12.1 °C 4.3 °C 1005.6 hPa Calm   1.6 km/h 59% 0 mm 16 W/m2
06:24 12 °C 4.2 °C 1005.6 hPa Calm   1.6 km/h 59% 0 mm 14 W/m2
06:29 11.9 °C 4.2 °C 1006 hPa Calm   1.6 km/h 59% 0 mm 19 W/m2
06:34 11.8 °C 4.1 °C 1006 hPa Calm   1.6 km/h 59.1% 0 mm 19 W/m2
06:39 11.8 °C 4.3 °C 1006 hPa Calm     60% 0 mm 32 W/m2
06:44 11.8 °C 4.3 °C 1006 hPa Calm   1.6 km/h 60% 0 mm 56 W/m2
06:49 11.7 °C 4.4 °C 1006 hPa Calm   1.6 km/h 61% 0 mm 70 W/m2
06:54 11.7 °C 4.7 °C 1006 hPa Calm   3.2 km/h 62% 0 mm 70 W/m2
06:59 11.7 °C 4.7 °C 1006 hPa NNW 0.2 km/h 3.2 km/h 62% 0 mm 95 W/m2
07:04 11.7 °C 4.7 °C 1005.6 hPa NNW 0.2 km/h 3.2 km/h 62% 0 mm 102 W/m2
07:09 11.8 °C 4.6 °C 1005.6 hPa NNW 0.5 km/h 4.8 km/h 61.3% 0 mm 79 W/m2
07:14 11.9 °C 4.6 °C 1005.6 hPa NW 0.8 km/h 4.8 km/h 60.4% 0 mm 88 W/m2
07:19 12.1 °C 4.6 °C 1006 hPa NW 0.5 km/h 4.8 km/h 60% 0 mm 95 W/m2
07:24 12.2 °C 4.4 °C 1006 hPa NW 0.5 km/h 4.8 km/h 59.1% 0 mm 86 W/m2
07:29 12.3 °C 4.6 °C 1006 hPa NW 0.8 km/h 4.8 km/h 59% 0 mm 107 W/m2
07:34 12.4 °C 4.6 °C 1006 hPa NW 0.5 km/h 4.8 km/h 58.6% 0 mm 155 W/m2
07:39 12.6 °C 4.7 °C 1005.6 hPa NW 0.6 km/h 4.8 km/h 58.5% 0 mm 269 W/m2
07:44 12.9 °C 4.9 °C 1005.6 hPa NW 0.5 km/h 4.8 km/h 58.4% 0 mm 264 W/m2
07:49 13.3 °C 4.9 °C 1005.6 hPa NW 0.3 km/h 4.8 km/h 56.6% 0 mm 343 W/m2
07:54 13.8 °C 5.3 °C 1005.6 hPa WNW 0.2 km/h 4.8 km/h 56.4% 0 mm 383 W/m2
07:59 14.4 °C 5.4 °C 1005.6 hPa WNW 0.5 km/h 4.8 km/h 54.7% 0 mm 392 W/m2
08:00 14.7 °C 5.3 °C 1005.6 hPa Calm   4.8 km/h 53% 0 mm 392 W/m2
08:09 15.6 °C 5.7 °C 1005.6 hPa WNW 0.5 km/h 6.4 km/h 51.7% 0 mm 418 W/m2
08:14 16.1 °C 5.3 °C 1005.6 hPa WSW 0.5 km/h 6.4 km/h 48.8% 0 mm 438 W/m2
08:19 16.6 °C 5.4 °C 1005.3 hPa SW 0.3 km/h 6.4 km/h 47.6% 0 mm 450 W/m2
08:24 17 °C 5.2 °C 1005.6 hPa SSW 1.3 km/h 8 km/h 45.7% 0 mm 466 W/m2
08:29 17.4 °C 5.4 °C 1005.6 hPa SW 0.5 km/h 8 km/h 45.2% 0 mm 471 W/m2
08:34 17.7 °C 5.1 °C 1005.3 hPa SW 0.2 km/h 8 km/h 43.3% 0 mm 506 W/m2
08:39 18.1 °C 5.5 °C 1005.3 hPa SW 0.5 km/h 4.8 km/h 43.6% 0 mm 517 W/m2
08:44 18.5 °C 5.4 °C 1005.3 hPa SW 1 km/h 6.4 km/h 42.2% 0 mm 533 W/m2
08:49 18.9 °C 5.3 °C 1005.3 hPa Calm   6.4 km/h 41% 0 mm 552 W/m2
08:51 19.1 °C 5.1 °C 1005.3 hPa Calm   6.4 km/h 39.8% 0 mm 545 W/m2
09:00 19.4 °C 5.8 °C 1005 hPa Calm   6.4 km/h 41% 0 mm 523 W/m2
09:30 21.6 °C 6.3 °C 1005 hPa SW 1.6 km/h 14.5 km/h 37% 0 mm 618 W/m2
10:00 22.2 °C 6.4 °C 1004.3 hPa SW 3.2 km/h 17.7 km/h 36% 0 mm 713 W/m2
10:30 24 °C 8 °C 1003.9 hPa WSW 1.6 km/h 16.1 km/h 36% 0 mm 785 W/m2
11:00 24.9 °C 8.8 °C 1004.3 hPa WSW 1.6 km/h 11.3 km/h 36% 0 mm 859 W/m2
11:30 25.7 °C 10.3 °C 1003.9 hPa WSW 3.2 km/h 16.1 km/h 38% 0 mm 894 W/m2
12:04 26.2 °C 8.4 °C 1003.6 hPa West 1.8 km/h 4.8 km/h 32.5% 0 mm 499 W/m2
12:09 25.9 °C 8.9 °C 1003.6 hPa SW 4.3 km/h 19.3 km/h 34.1% 0 mm 591 W/m2
12:14 25.6 °C 8.9 °C 1003.3 hPa WSW 2.3 km/h 19.3 km/h 34.8% 0 mm 591 W/m2
12:19 25.4 °C 9.4 °C 1003.3 hPa WSW 1.6 km/h 19.3 km/h 36.5% 0 mm 819 W/m2
12:24 25.4 °C 9.1 °C 1003.3 hPa SW 2.1 km/h 19.3 km/h 35.5% 0 mm 905 W/m2
12:29 25.6 °C 9.3 °C 1003.3 hPa SW 1.4 km/h 19.3 km/h 35.7% 0 mm 905 W/m2
12:34 25.6 °C 9.8 °C 1002.9 hPa SW 0.5 km/h 19.3 km/h 37% 0 mm 656 W/m2
12:39 25.6 °C 10.1 °C 1002.9 hPa West 2.4 km/h 11.3 km/h 37.5% 0 mm 527 W/m2
12:44 25.7 °C 9.4 °C 1002.9 hPa WNW 4 km/h 17.7 km/h 35.9% 0 mm 708 W/m2
12:49 25.8 °C 10 °C 1002.9 hPa WSW 0.6 km/h 17.7 km/h 37% 0 mm 1048 W/m2
12:54 26.1 °C 10.2 °C 1002.9 hPa West 5.5 km/h 19.3 km/h 36.8% 0 mm 1071 W/m2
12:59 26.4 °C 9.2 °C 1002.9 hPa WNW 10.8 km/h 22.5 km/h 33.7% 0 mm 1071 W/m2
13:04 26.3 °C 9.5 °C 1002.6 hPa WNW 6.9 km/h 22.5 km/h 34.7% 0 mm 1028 W/m2
13:09 26.4 °C 9.8 °C 1002.6 hPa WNW 3.5 km/h 19.3 km/h 35.3% 0 mm 986 W/m2
13:14 26.6 °C 10.2 °C 1002.6 hPa West 2.9 km/h 19.3 km/h 35.8% 0 mm 1118 W/m2
13:19 26.7 °C 9.7 °C 1002.6 hPa SW 3.1 km/h 24.1 km/h 34.5% 0 mm 1118 W/m2
13:24 26.7 °C 10.1 °C 1002.6 hPa WNW 2.1 km/h 24.1 km/h 35.3% 0 mm 1232 W/m2
13:29 26.7 °C 10.3 °C 1002.3 hPa West 1 km/h 24.1 km/h 35.6% 0 mm 1158 W/m2
13:34 27 °C 10.4 °C 1002.6 hPa WSW 2.7 km/h 24.1 km/h 35.3% 0 mm 578 W/m2
13:39 27.3 °C 10.4 °C 1002.3 hPa West 4.2 km/h 14.5 km/h 35% 0 mm 1137 W/m2
13:44 27.3 °C 10.1 °C 1002.3 hPa SW 4.3 km/h 14.5 km/h 34.1% 0 mm 1092 W/m2
13:49 27.2 °C 9.8 °C 1002.3 hPa SW 3.9 km/h 14.5 km/h 33.5% 0 mm 1113 W/m2
13:54 27.2 °C 10.3 °C 1002.3 hPa WSW 4.3 km/h 16.1 km/h 35% 0 mm 761 W/m2
13:59 27.1 °C 9.7 °C 1002.3 hPa SW 7.2 km/h 25.7 km/h 33.4% 0 mm 761 W/m2
14:04 26.9 °C 10.2 °C 1002.6 hPa West 6.4 km/h 25.7 km/h 34.9% 0 mm 1063 W/m2
14:09 27.1 °C 10.8 °C 1002.6 hPa West 1.9 km/h 19.3 km/h 36.2% 0 mm 1041 W/m2
14:14 27.3 °C 10.4 °C 1002.6 hPa West 1.9 km/h 19.3 km/h 34.6% 0 mm 960 W/m2
14:19 27.6 °C 10.2 °C 1002.6 hPa West 2.7 km/h 19.3 km/h 33.8% 0 mm 970 W/m2
14:24 27.6 °C 10.1 °C 1002.6 hPa WSW 7.4 km/h 19.3 km/h 33.4% 0 mm 970 W/m2
14:29 27.6 °C 9.8 °C 1002.6 hPa SW 0.6 km/h 19.3 km/h 32.9% 0 mm 503 W/m2
14:34 27.4 °C 9.9 °C 1002.6 hPa WSW 3.1 km/h 19.3 km/h 33.3% 0 mm 1053 W/m2
14:39 27.5 °C 11.2 °C 1002.3 hPa WNW 1.4 km/h 11.3 km/h 36.3% 0 mm 997 W/m2
14:44 27.8 °C 10.7 °C 1002.3 hPa WNW 6.9 km/h 14.5 km/h 34.3% 0 mm 918 W/m2
14:49 28 °C 10.3 °C 1002.3 hPa WNW 7.9 km/h 22.5 km/h 33.2% 0 mm 912 W/m2
14:54 28 °C 9.9 °C 1002.6 hPa WNW 10.9 km/h 25.7 km/h 32.3% 0 mm 912 W/m2
14:59 27.8 °C 10.5 °C 1002.3 hPa West 4.3 km/h 25.7 km/h 34% 0 mm 306 W/m2
15:04 27.7 °C 10.6 °C 1002.6 hPa NW 1.8 km/h 25.7 km/h 34.3% 0 mm 306 W/m2
15:09 27.7 °C 10.7 °C 1002.6 hPa WNW 1.1 km/h 14.5 km/h 34.6% 0 mm 318 W/m2
15:14 27.8 °C 10.4 °C 1002.6 hPa WNW 6.9 km/h 22.5 km/h 33.9% 0 mm 926 W/m2
15:19 27.8 °C 10.8 °C 1002.6 hPa WNW 7.2 km/h 25.7 km/h 34.7% 0 mm 926 W/m2
15:24 27.9 °C 11.4 °C 1002.6 hPa WNW 10.5 km/h 27.4 km/h 35.7% 0 mm 849 W/m2
15:29 28 °C 11 °C 1002.6 hPa WNW 7.1 km/h 27.4 km/h 34.7% 0 mm 807 W/m2
15:34 28.1 °C 11.5 °C 1002.6 hPa WNW 2.3 km/h 27.4 km/h 35.7% 0 mm 807 W/m2
15:39 28.1 °C 11.6 °C 1002.3 hPa WNW 4.3 km/h 17.7 km/h 36% 0 mm 457 W/m2
15:44 27.9 °C 10.8 °C 1002.6 hPa West 5.6 km/h 17.7 km/h 34.4% 0 mm 308 W/m2
15:49 27.7 °C 11.3 °C 1002.6 hPa WNW 5.1 km/h 17.7 km/h 36% 0 mm 308 W/m2
15:54 27.4 °C 11.1 °C 1002.6 hPa NW 6.9 km/h 17.7 km/h 36% 0 mm 181 W/m2
15:59 27.2 °C 10.8 °C 1002.6 hPa NW 10.3 km/h 27.4 km/h 35.8% 0 mm 165 W/m2
16:04 26.8 °C 10.5 °C 1002.9 hPa NE 0.5 km/h 3.2 km/h 36% 0 mm 199 W/m2
16:09 26.6 °C 10.4 °C 1002.9 hPa NE 1.8 km/h 8 km/h 36.1% 0 mm 225 W/m2
16:14 26.1 °C 10.1 °C 1003.6 hPa NNW 6.9 km/h 27.4 km/h 36.5% 0 mm 114 W/m2
16:19 25.6 °C 9.9 °C 1003.6 hPa NNW 5.5 km/h 27.4 km/h 37.4% 0 mm 135 W/m2
16:24 25.2 °C 10.2 °C 1003.6 hPa NW 7.6 km/h 27.4 km/h 39% 0 mm 172 W/m2
16:29 24.6 °C 10.8 °C 1003.9 hPa NW 7.7 km/h 27.4 km/h 42.1% 0 mm 162 W/m2
16:34 23.9 °C 11 °C 1004.3 hPa NNW 2.6 km/h 27.4 km/h 44.2% 0 mm 172 W/m2
16:39 23.4 °C 11.1 °C 1004.6 hPa NNW 6 km/h 22.5 km/h 45.8% 0 mm 167 W/m2
16:44 23.1 °C 11.1 °C 1005 hPa NNW 6 km/h 22.5 km/h 46.8% 0 mm 169 W/m2
16:49 22.7 °C 11.2 °C 1005 hPa North 1.4 km/h 22.5 km/h 48.2% 0 mm 181 W/m2
16:54 22.5 °C 11.3 °C 1005.3 hPa North 0.5 km/h 22.5 km/h 49% 0 mm 123 W/m2
16:59 22.3 °C 11.5 °C 1005.3 hPa NW 1 km/h 22.5 km/h 50.4% 0 mm 141 W/m2
17:04 22.2 °C 11.5 °C 1005.3 hPa NNW 2.1 km/h 22.5 km/h 50.6% 0 mm 83 W/m2
17:09 22.1 °C 11.6 °C 1005.3 hPa NW 5.5 km/h 16.1 km/h 51.3% 0 mm 97 W/m2
17:14 21.9 °C 11.7 °C 1005.6 hPa NW 3.2 km/h 17.7 km/h 52.5% 0 mm 77 W/m2
17:19 21.6 °C 11.8 °C 1005.6 hPa NW 8.7 km/h 20.9 km/h 53.6% 0 mm 76 W/m2
17:24 21.3 °C 11.9 °C 1005.6 hPa NW 3.9 km/h 20.9 km/h 55% 0 mm 97 W/m2
17:29 20.9 °C 11.9 °C 1005.6 hPa NW 7.2 km/h 27.4 km/h 56.3% 0 mm 116 W/m2
17:34 20.6 °C 11.8 °C 1005.3 hPa NW 8.2 km/h 27.4 km/h 57.2% 0 mm 107 W/m2
17:39 20.3 °C 11.9 °C 1005.3 hPa NW 3.9 km/h 27.4 km/h 58.5% 0 mm 93 W/m2
17:44 20.2 °C 12.1 °C 1005.6 hPa NW 0.5 km/h 27.4 km/h 59.5% 0 mm 58 W/m2
17:49 20.1 °C 12.2 °C 1005.6 hPa NNW 3.4 km/h 27.4 km/h 60.3% 0 mm 32 W/m2
17:54 19.9 °C 12.2 °C 1006.3 hPa NW 8.2 km/h 27.4 km/h 61% 0 mm 23 W/m2
17:59 19.7 °C 12.3 °C 1006.7 hPa NW 5.1 km/h 27.4 km/h 62.5% 0 mm 12 W/m2
18:04 19.5 °C 12.4 °C 1006.7 hPa NNW 1.9 km/h 27.4 km/h 63.8% 0 mm 7 W/m2
18:09 19.3 °C 12.7 °C 1006.7 hPa NW 6.3 km/h 20.9 km/h 65.5% 0 mm 7 W/m2
18:14 19.1 °C 12.6 °C 1007 hPa NNW 3.5 km/h 20.9 km/h 66% 0 mm 5 W/m2
18:19 18.9 °C 12.8 °C 1007 hPa NNW 4.2 km/h 20.9 km/h 67.6% 0 mm 0 W/m2
18:24 18.7 °C 12.9 °C 1007.3 hPa NNW 1 km/h 20.9 km/h 68.9% 0 mm 0 W/m2
18:29 18.5 °C 13 °C 1007 hPa NE 2.1 km/h 20.9 km/h 70.3% 0 mm 7 W/m2
18:34 18.2 °C 13.1 °C 1007 hPa NE 0.6 km/h 20.9 km/h 72% 0 mm 7 W/m2
18:39 17.9 °C 13.3 °C 1007.3 hPa Calm   6.4 km/h 74.1% 0 mm 12 W/m2
18:44 17.7 °C 13.2 °C 1007.3 hPa NNW 2.3 km/h 11.3 km/h 75% 0 mm 21 W/m2
18:49 17.6 °C 13.2 °C 1007.3 hPa NNW 2.6 km/h 17.7 km/h 75.6% 0 mm 9 W/m2
18:54 17.5 °C 13.1 °C 1007.7 hPa NNW 2.1 km/h 17.7 km/h 75.6% 0 mm 0 W/m2
18:59 17.4 °C 13.2 °C 1007.7 hPa North 1.9 km/h 17.7 km/h 76% 0 mm 5 W/m2
19:04 17.4 °C 13.1 °C 1007.3 hPa NNW 2.6 km/h 17.7 km/h 76% 0 mm 0 W/m2
19:09 17.3 °C 13.2 °C 1007.3 hPa NW 3.2 km/h 16.1 km/h 76.4% 0 mm 0 W/m2
19:14 17.2 °C 13 °C 1007.7 hPa NW 6.4 km/h 20.9 km/h 76.1% 0 mm 0 W/m2
19:19 17.1 °C 13 °C 1007.7 hPa NNW 3.1 km/h 20.9 km/h 76.9% 0 mm 0 W/m2
19:24 16.9 °C 13.1 °C 1008 hPa North 1.6 km/h 20.9 km/h 77.6% 0 mm 0 W/m2
19:29 16.9 °C 13.1 °C 1007.7 hPa NNW 0.6 km/h 20.9 km/h 78% 0 mm 0 W/m2
19:34 16.8 °C 12.9 °C 1007.7 hPa NNW 1.6 km/h 20.9 km/h 78% 0 mm 0 W/m2
19:39 16.7 °C 12.7 °C 1007.7 hPa NNE 0.2 km/h 9.7 km/h 77.2% 0 mm 0 W/m2
19:44 16.6 °C 12.7 °C 1008 hPa North 0.6 km/h 9.7 km/h 77.9% 0 mm 0 W/m2
19:49 16.5 °C 12.7 °C 1008 hPa NNE 0.5 km/h 9.7 km/h 78% 0 mm 0 W/m2
19:54 16.4 °C 12.6 °C 1008 hPa Calm   9.7 km/h 78% 0 mm 0 W/m2
19:59 16.3 °C 12.5 °C 1007.7 hPa Calm   9.7 km/h 78% 0 mm 0 W/m2
20:00 16.3 °C 12.4 °C 1007.7 hPa Calm   9.7 km/h 78% 0 mm 0 W/m2
20:09 16.2 °C 12.4 °C 1008 hPa North 2.4 km/h 8 km/h 78% 0 mm 0 W/m2
20:14 16.1 °C 12.3 °C 1007.7 hPa NW 3.4 km/h 9.7 km/h 78% 0 mm 0 W/m2
20:19 16.1 °C 12.2 °C 1007.7 hPa NW 1.6 km/h 11.3 km/h 78.2% 0 mm 0 W/m2
20:24 16 °C 12.3 °C 1007.7 hPa NNW 2.7 km/h 11.3 km/h 79% 0 mm 0 W/m2
20:29 15.9 °C 12.3 °C 1007.7 hPa NNW 1.1 km/h 11.3 km/h 79% 0 mm 0 W/m2
20:34 15.8 °C 12.2 °C 1007.7 hPa Calm   11.3 km/h 79% 0 mm 0 W/m2
20:39 15.8 °C 12.3 °C 1007.7 hPa Calm     79.5% 0 mm 0 W/m2
20:44 15.8 °C 12.3 °C 1007.7 hPa Calm     80% 0 mm 0 W/m2
20:49 15.8 °C 12.3 °C 1007.7 hPa Calm     80% 0 mm 0 W/m2
20:54 15.7 °C 12.3 °C 1007.7 hPa Calm     80% 0 mm 0 W/m2
20:59 15.7 °C 12.3 °C 1007.7 hPa Calm     80% 0 mm 0 W/m2
21:04 15.7 °C 12.3 °C 1007.7 hPa NNW 0.2 km/h 3.2 km/h 80% 0 mm 0 W/m2
21:09 15.7 °C 12.3 °C 1007.7 hPa Calm   3.2 km/h 80% 0 mm 0 W/m2
21:14 15.7 °C 12.2 °C 1008 hPa NNW 1 km/h 4.8 km/h 79.8% 0 mm 0 W/m2
21:19 15.7 °C 12.1 °C 1008 hPa Calm   4.8 km/h 79% 0 mm 0 W/m2
21:24 15.7 °C 12.1 °C 1008 hPa Calm   4.8 km/h 79% 0 mm 0 W/m2
21:29 15.7 °C 12.1 °C 1008.4 hPa Calm   4.8 km/h 79% 0 mm 0 W/m2
21:34 15.7 °C 11.9 °C 1008 hPa NNW 0.2 km/h 4.8 km/h 78.3% 0 mm 0 W/m2
21:39 15.7 °C 11.6 °C 1008 hPa Calm   3.2 km/h 76.6% 0 mm 0 W/m2
21:44 15.7 °C 11.4 °C 1008 hPa Calm   3.2 km/h 76% 0 mm 0 W/m2
21:49 15.7 °C 11.4 °C 1008 hPa NNW 0.5 km/h 6.4 km/h 76% 0 mm 0 W/m2
21:54 15.7 °C 11.4 °C 1008 hPa NNW 1 km/h 6.4 km/h 75.8% 0 mm 0 W/m2
21:59 15.7 °C 11.3 °C 1008.4 hPa NNW 0.5 km/h 8 km/h 75.4% 0 mm 0 W/m2
22:04 15.6 °C 11.1 °C 1008.4 hPa WNW 1.4 km/h 9.7 km/h 74.6% 0 mm 0 W/m2
22:09 15.6 °C 11.1 °C 1008.4 hPa Calm   9.7 km/h 74.2% 0 mm 0 W/m2
22:14 15.6 °C 11 °C 1008.4 hPa Calm   9.7 km/h 74% 0 mm 0 W/m2
22:19 15.6 °C 10.9 °C 1008.4 hPa Calm   9.7 km/h 74% 0 mm 0 W/m2
22:24 15.6 °C 10.9 °C 1008.4 hPa Calm   9.7 km/h 74% 0 mm 0 W/m2
22:29 15.6 °C 10.8 °C 1008.4 hPa Calm   9.7 km/h 73.2% 0 mm 0 W/m2
22:34 15.6 °C 10.8 °C 1008.4 hPa WNW 0.2 km/h 9.7 km/h 73.1% 0 mm 0 W/m2
22:39 15.6 °C 10.9 °C 1008.4 hPa West 3.4 km/h 11.3 km/h 73.8% 0 mm 0 W/m2
22:44 15.6 °C 10.8 °C 1008.4 hPa NW 1.6 km/h 14.5 km/h 73% 0 mm 0 W/m2
22:49 15.6 °C 10.7 °C 1008.7 hPa NW 0.2 km/h 14.5 km/h 73% 0 mm 0 W/m2
22:54 15.6 °C 10.7 °C 1008.7 hPa West 0.8 km/h 14.5 km/h 73% 0 mm 0 W/m2
22:59 15.6 °C 10.7 °C 1008.7 hPa Calm   14.5 km/h 73% 0 mm 0 W/m2
23:04 15.6 °C 10.7 °C 1009 hPa Calm   14.5 km/h 73% 0 mm 0 W/m2
23:09 15.6 °C 10.7 °C 1009 hPa Calm   1.6 km/h 73% 0 mm 0 W/m2
23:14 15.6 °C 10.7 °C 1009 hPa WSW 0.2 km/h 3.2 km/h 73% 0 mm 0 W/m2
23:19 15.6 °C 10.7 °C 1009 hPa WSW 0.6 km/h 6.4 km/h 73% 0 mm 0 W/m2
23:24 15.5 °C 10.8 °C 1009 hPa Calm   6.4 km/h 73.5% 0 mm 0 W/m2
23:29 15.5 °C 10.9 °C 1009 hPa Calm   6.4 km/h 74% 0 mm 0 W/m2
23:34 15.5 °C 10.9 °C 1009 hPa Calm   6.4 km/h 74% 0 mm 0 W/m2
23:39 15.4 °C 10.8 °C 1009 hPa WSW 0.3 km/h 4.8 km/h 73.7% 0 mm 0 W/m2
23:44 15.4 °C 10.7 °C 1009 hPa WSW 0.2 km/h 4.8 km/h 73.2% 0 mm 0 W/m2
23:49 15.4 °C 10.7 °C 1009 hPa Calm   4.8 km/h 73.4% 0 mm 0 W/m2
23:54 15.3 °C 10.6 °C 1009 hPa Calm   4.8 km/h 73% 0 mm 0 W/m2
23:59 15.3 °C 10.7 °C 1009 hPa Calm   4.8 km/h 73.7% 0 mm 0 W/m2
Hartford County Weather
Compliments of Weather Underground - 4 mb